• Join FlightAware (Why Join?)
  • Login
  • US Flag 
09:08PM EDT


 

Airport Tracker/Info


-or-


 

Live Flight TrackerFlight Track Log ✈ WBR2633 ✈ 28-Jun-2013 ✈ KBRL - KSTL

Flight Track Log - Related Links

Times and Time Zones

All times are in EDT time to prevent confusion due to time zone crossing. See the WBR2633 flight status page for this flight to view local times or setup timezone preferences in your user account.

Time Position Orientation Groundspeed Altitude Reporting Facility
EDT Latitude Longitude Course Direction KTS MPH feet Rate Location/Type
11:25AM 40.7608 -91.1656 163° South 148 170 2,700  Level Chicago Center
11:26AM 40.7247 -91.1478 160° South 137 158 3,400 720 Climbing Chicago Center
11:27AM 40.6764 -91.1278 163° South 146 168 4,300 780 Climbing Chicago Center
11:28AM 40.5113 -91.0218 163° South  Level Estimated
11:28AM 40.6372 -91.1150 166° South 148 170 5,100  Level Chicago Center
11:29AM 40.4662 -91.0034 163° South  Level FlightAware Approximate
11:29AM 40.5944 -91.0967 162° South 151 174 5,100  Level Chicago Center
11:30AM 40.4208 -90.9863 163° South  Level Estimated
11:30AM 40.5500 -91.0764 161° South 158 182 5,100  Level Chicago Center
11:31AM 40.5050 -91.0581 163° South 167 192 5,000 -60 Descending Chicago Center
11:32AM 40.4481 -91.0369 164° South 173 199 5,000  Level Chicago Center
11:33AM 40.4008 -91.0175 163° South 177 204 5,000  Level Chicago Center
11:34AM 40.3683 -91.0039 162° South 166 191 5,000  Level Kansas City Center
11:35AM 40.3167 -90.9825 162° South 163 188 5,000  Level Kansas City Center
11:36AM 40.2753 -90.9669 164° South 162 186 5,000  Level Kansas City Center
11:37AM 40.2328 -90.9478 161° South 159 183 5,000  Level Kansas City Center
11:38AM 40.1908 -90.9314 163° South 158 182 5,000  Level Kansas City Center
11:39AM 40.1497 -90.9167 165° South 154 177 5,000  Level Kansas City Center
11:41AM 40.1081 -90.8989 162° South 157 181 5,000  Level Kansas City Center
11:42AM 40.0586 -90.8800 164° South 156 180 5,000  Level Kansas City Center
11:43AM 40.0175 -90.8625 162° South 156 180 5,000  Level Kansas City Center
11:44AM 39.9753 -90.8456 163° South 156 180 5,000  Level Kansas City Center
11:45AM 39.9331 -90.8306 165° South 157 181 5,000  Level Kansas City Center
11:46AM 39.8925 -90.8150 164° South 155 178 5,000  Level Kansas City Center
11:47AM 39.8503 -90.7964 161° South 157 181 5,000  Level Kansas City Center
11:48AM 39.8011 -90.7772 163° South 156 180 5,000  Level Kansas City Center
11:49AM 39.7583 -90.7619 165° South 157 181 5,000  Level Kansas City Center
11:50AM 39.7144 -90.7433 162° South 157 181 5,100  Climbing Kansas City Center
11:51AM 39.6728 -90.7275 164° South 156 180 5,100 -60 Level Kansas City Center
11:52AM 39.6328 -90.7119 163° South 151 174 5,000 -60 Descending Kansas City Center
11:53AM 39.5925 -90.6972 164° South 151 174 5,000  Level Kansas City Center
11:54AM 39.5531 -90.6811 163° South 150 173 5,100  Climbing Kansas City Center
11:55AM 39.5119 -90.6633 162° South 153 176 5,100  Level Kansas City Center
11:56AM 39.4631 -90.6453 164° South 154 177 5,100  Level Kansas City Center
11:57AM 39.4239 -90.6283 162° South 150 173 5,100  Level Kansas City Center
11:58AM 39.3839 -90.6136 164° South 149 171 5,100  Level Kansas City Center
11:59AM 39.3439 -90.5958 161° South 152 175 5,100  Level Kansas City Center
12:00PM 39.3039 -90.5814 164° South 151 174 5,100 -120 Level Kansas City Center
12:01PM 39.2647 -90.5617 159° South 151 174 4,900 -360 Descending Kansas City Center
12:02PM 39.2175 -90.5272 151° Southeast 156 180 4,400 -420 Descending Kansas City Center
12:03PM 39.1747 -90.4989 153° Southeast 165 190 4,100 -240 Descending Kansas City Center
12:04PM 39.1361 -90.4694 149° Southeast 165 190 4,000 -60 Descending Kansas City Center
12:05PM 39.1000 -90.4419 149° Southeast 159 183 4,000  Level Kansas City Center
12:06PM 39.0636 -90.4172 152° Southeast 152 175 4,100  Climbing Kansas City Center
12:07PM 39.0261 -90.3914 152° Southeast 151 174 4,100  Level Kansas City Center
12:08PM 38.9819 -90.3592 150° Southeast 152 175 4,100  Level Kansas City Center
12:09PM 38.9447 -90.3342 152° Southeast 152 175 4,100  Level Kansas City Center
12:11PM 38.9058 -90.3094 154° Southeast 153 176 4,100  Level Kansas City Center
12:12PM 38.8675 -90.2822 151° Southeast 155 178 4,100  Level Kansas City Center
12:13PM 38.8294 -90.2553 151° Southeast 155 178 4,100  Level Kansas City Center
12:14PM 38.7914 -90.2289 152° Southeast 155 178 4,100  Level Kansas City Center
12:15PM 38.7531 -90.2025 152° Southeast 155 178 4,100  Level Kansas City Center
12:16PM 38.7156 -90.1592 138° Southeast 157 181 4,100  Level Kansas City Center
12:17PM 38.6750 -90.1594 180° South 150 173 4,100 -300 Level Kansas City Center
12:18PM 38.6683 -90.1958 257° West 129 148 3,500 -660 Descending Kansas City Center
12:19PM 38.6867 -90.2319 303° West 123 142 2,800 -720 Descending Kansas City Center
12:20PM 38.7039 -90.2692 301° West 123 142 2,100 -720 Descending Kansas City Center
12:21PM 38.7222 -90.3061 302° West 123 142 1,400 -720 Descending Kansas City Center
12:22PM 38.7419 -90.3467 302° West 119 137 700 -720 Descending Kansas City Center